Time;durP1;ratioP1;P1;durP2;ratioP2;P2;SDS_P1;SDS_P2;PMS_P1;PMS_P2;Temp;Humidity;BMP_temperature;BMP_pressure;BME280_temperature;BME280_humidity;BME280_pressure;Samples;Min_cycle;Max_cycle;Signal;HPM_P1;HPM_P2
2022/06/22 00:01:43;;;;;;;6.93;4.47;;;;;;;;;;4994941;28;20033;-71
2022/06/22 00:04:14;;;;;;;10.23;4.43;;;;;;;;;;5009537;28;20046;-71
2022/06/22 00:06:45;;;;;;;6.53;4.05;;;;;;;;;;4987743;28;20027;-71
2022/06/22 00:09:27;;;;;;;7.45;4.22;;;;;;;;;;5008395;28;20469;-73
2022/06/22 00:11:53;;;;;;;8.90;4.07;;;;;;;;;;5004536;28;20030;-71
2022/06/22 00:14:24;;;;;;;8.63;4.30;;;13.10;99.90;;;;;;5011079;28;20065;-72
2022/06/22 00:16:52;;;;;;;11.18;5.97;;;;;;;;;;5009562;28;20033;-73
2022/06/22 00:19:40;;;;;;;15.70;6.38;;;13.30;99.90;;;;;;5011066;28;20044;-74
2022/06/22 00:22:21;;;;;;;15.82;6.78;;;13.20;99.90;;;;;;5012676;28;20038;-73
2022/06/22 00:24:59;;;;;;;7.75;5.05;;;13.20;99.90;;;;;;5010969;28;20361;-74
2022/06/22 00:27:29;;;;;;;8.40;5.28;;;;;;;;;;5010358;28;20034;-73
2022/06/22 00:30:10;;;;;;;7.65;5.10;;;;;;;;;;5008859;28;20180;-73
2022/06/22 00:32:36;;;;;;;8.02;5.72;;;;;;;;;;5004886;28;20038;-71
2022/06/22 00:35:47;;;;;;;13.35;6.68;;;13.00;99.90;;;;;;5009084;28;20022;-71
2022/06/22 00:38:17;;;;;;;14.35;6.47;;;;;;;;;;4973096;28;20490;-71
2022/06/22 00:40:43;;;;;;;8.43;5.88;;;;;;;;;;5009531;28;20088;-71
2022/06/22 00:43:14;;;;;;;8.75;5.55;;;;;;;;;;5014988;28;20037;-71
2022/06/22 00:45:40;;;;;;;6.80;4.72;;;;;;;;;;5012548;28;20032;-71
2022/06/22 00:48:30;;;;;;;7.50;5.45;;;12.80;99.90;;;;;;4994361;28;20072;-71
2022/06/22 00:50:59;;;;;;;6.78;4.68;;;;;;;;;;5007639;28;20030;-71
2022/06/22 00:53:32;;;;;;;7.97;4.68;;;;;;;;;;5008807;28;20038;-72
2022/06/22 00:56:05;;;;;;;9.13;4.60;;;;;;;;;;4990876;28;20029;-72
2022/06/22 00:59:00;;;;;;;6.40;4.60;;;;;;;;;;5010671;28;20036;-72
2022/06/22 01:01:26;;;;;;;7.43;4.93;;;;;;;;;;4999712;28;20100;-72
2022/06/22 01:04:15;;;;;;;8.43;5.30;;;;;;;;;;5009219;28;20397;-72
2022/06/22 01:06:53;;;;;;;7.60;5.82;;;12.10;99.90;;;;;;4991757;28;20042;-72
2022/06/22 01:09:28;;;;;;;11.68;5.30;;;;;;;;;;5011768;28;20786;-72
2022/06/22 01:12:18;;;;;;;8.10;6.10;;;;;;;;;;5014750;28;20624;-72
2022/06/22 01:15:32;;;;;;;11.13;6.30;;;12.20;99.90;;;;;;5009922;28;20369;-72
2022/06/22 01:18:23;;;;;;;11.18;7.32;;;;;;;;;;5005854;28;20080;-72
2022/06/22 01:20:55;;;;;;;10.20;7.28;;;;;;;;;;5010945;28;20520;-72
2022/06/22 01:23:24;;;;;;;16.73;6.78;;;;;;;;;;4998609;28;20392;-72
2022/06/22 01:25:55;;;;;;;8.63;5.95;;;;;;;;;;5010378;28;20030;-72
2022/06/22 01:28:22;;;;;;;8.05;6.15;;;;;;;;;;5010606;28;20121;-72
2022/06/22 01:30:55;;;;;;;10.80;7.15;;;;;;;;;;5006544;28;20030;-72
2022/06/22 01:33:33;;;;;;;8.73;6.40;;;;;;;;;;5008713;28;20034;-72
2022/06/22 01:36:00;;;;;;;12.60;6.80;;;;;;;;;;5012260;28;20018;-72
2022/06/22 01:38:31;;;;;;;9.02;7.28;;;;;;;;;;5008340;28;20030;-72
2022/06/22 01:41:03;;;;;;;9.48;6.57;;;;;;;;;;4993878;28;20124;-72
2022/06/22 01:43:35;;;;;;;10.85;6.28;;;12.10;99.90;;;;;;4992357;28;20085;-72
2022/06/22 01:46:07;;;;;;;8.70;6.57;;;;;;;;;;5009818;28;20026;-72
2022/06/22 01:48:40;;;;;;;9.40;6.80;;;;;;;;;;4993551;28;20506;-72
2022/06/22 01:51:23;;;;;;;10.32;6.65;;;;;;;;;;5007995;28;20033;-72
2022/06/22 01:53:54;;;;;;;10.20;6.35;;;;;;;;;;5011312;28;20022;-72
2022/06/22 01:56:27;;;;;;;9.27;6.93;;;;;;;;;;5008222;28;20038;-72
2022/06/22 01:58:57;;;;;;;11.95;8.38;;;;;;;;;;5009988;28;20049;-72
2022/06/22 02:01:52;;;;;;;8.27;6.53;;;11.80;99.90;;;;;;5007573;28;20084;-72
2022/06/22 02:04:22;;;;;;;9.02;6.63;;;;;;;;;;4992543;28;20133;-72
2022/06/22 02:10:08;;;;;;;11.57;6.80;;;;;;;;;;5002901;28;20543;-72
2022/06/22 02:12:37;;;;;;;11.55;6.80;;;;;;;;;;4975350;28;20039;-73
2022/06/22 02:15:26;;;;;;;8.20;6.10;;;11.50;99.90;;;;;;4989065;28;20030;-72
2022/06/22 02:17:53;;;;;;;8.95;6.30;;;;;;;;;;4985217;28;20178;-72
2022/06/22 02:20:19;;;;;;;8.45;6.07;;;;;;;;;;4989032;28;20427;-72
2022/06/22 02:22:50;;;;;;;6.28;4.93;;;;;;;;;;4993218;28;20068;-72
2022/06/22 02:25:17;;;;;;;7.10;4.97;;;;;;;;;;4992798;28;20023;-72
2022/06/22 02:27:43;;;;;;;8.85;6.55;;;;;;;;;;4991519;28;20041;-73
2022/06/22 02:30:10;;;;;;;7.60;5.32;;;;;;;;;;4993066;28;20038;-73
2022/06/22 02:32:38;;;;;;;10.43;5.82;;;;;;;;;;4991628;28;20426;-72
2022/06/22 02:35:05;;;;;;;9.32;5.93;;;;;;;;;;4994665;28;20122;-71
2022/06/22 02:37:33;;;;;;;9.50;6.22;;;;;;;;;;4991336;28;20038;-72
2022/06/22 02:40:01;;;;;;;11.25;6.40;;;;;;;;;;4990380;28;20466;-72
2022/06/22 02:45:13;;;;;;;11.73;6.40;;;;;;;;;;4992233;28;20524;-72
2022/06/22 02:47:51;;;;;;;8.18;5.90;;;;;;;;;;4987945;28;21867;-72
2022/06/22 02:50:25;;;;;;;11.73;6.20;;;;;;;;;;4990457;28;20046;-73
2022/06/22 02:52:53;;;;;;;14.95;6.65;;;;;;;;;;5012214;28;20034;-73
2022/06/22 02:55:21;;;;;;;8.35;6.95;;;;;;;;;;5013644;28;20032;-72
2022/06/22 02:57:53;;;;;;;7.60;6.22;;;;;;;;;;5009816;28;20037;-72
2022/06/22 03:00:21;;;;;;;7.60;5.95;;;;;;;;;;5011566;28;20104;-72
2022/06/22 03:02:48;;;;;;;7.72;5.95;;;;;;;;;;5003419;28;20486;-71
2022/06/22 03:05:15;;;;;;;10.50;5.57;;;;;;;;;;5011196;28;20181;-72
2022/06/22 03:07:44;;;;;;;7.13;5.88;;;;;;;;;;5012301;28;20045;-72
2022/06/22 03:10:30;;;;;;;11.95;6.65;;;;;;;;;;5012272;28;20465;-72
2022/06/22 03:12:56;;;;;;;10.48;6.32;;;;;;;;;;4970758;28;20278;-73
2022/06/22 03:15:24;;;;;;;8.07;6.07;;;;;;;;;;5013111;28;20040;-72
2022/06/22 03:17:50;;;;;;;9.32;5.93;;;;;;;;;;5009838;28;20037;-73
2022/06/22 03:20:22;;;;;;;8.57;6.10;;;;;;;;;;5008964;28;20099;-72
2022/06/22 03:22:54;;;;;;;8.27;6.28;;;;;;;;;;5010457;28;20465;-72
2022/06/22 03:25:25;;;;;;;10.43;6.95;;;;;;;;;;5012013;28;20499;-72
2022/06/22 03:27:52;;;;;;;8.75;6.28;;;;;;;;;;5011098;28;20037;-72
2022/06/22 03:30:20;;;;;;;10.68;6.93;;;;;;;;;;5003973;28;20034;-72
2022/06/22 03:32:50;;;;;;;9.10;5.82;;;;;;;;;;5003730;28;20045;-72
2022/06/22 03:35:19;;;;;;;8.57;5.25;;;;;;;;;;5007538;28;20097;-72
2022/06/22 03:38:06;;;;;;;8.80;5.15;;;;;;;;;;5010761;28;20026;-72
2022/06/22 03:40:36;;;;;;;7.53;5.93;;;;;;;;;;5005365;28;20033;-72
2022/06/22 03:43:15;;;;;;;8.07;5.70;;;;;;;;;;5008866;28;20029;-72
2022/06/22 03:45:45;;;;;;;7.35;5.97;;;;;;;;;;5006018;28;20073;-72
2022/06/22 03:48:24;;;;;;;8.43;4.95;;;;;;;;;;5000941;28;20038;-72
2022/06/22 03:51:03;;;;;;;8.77;5.55;;;;;;;;;;5007947;28;20034;-73
2022/06/22 03:53:39;;;;;;;7.30;5.78;;;;;;;;;;5009970;28;20033;-72
2022/06/22 03:56:07;;;;;;;8.40;5.70;;;;;;;;;;4995126;28;20038;-72
2022/06/22 03:58:33;;;;;;;6.40;5.07;;;;;;;;;;4994031;28;20030;-72
2022/06/22 04:00:59;;;;;;;8.85;5.65;;;;;;;;;;5009442;28;20833;-72
2022/06/22 04:03:26;;;;;;;9.88;5.85;;;;;;;;;;5015837;28;20738;-72
2022/06/22 04:05:56;;;;;;;10.13;6.00;;;;;;;;;;5010405;28;20040;-72
2022/06/22 04:08:25;;;;;;;12.77;7.70;;;;;;;;;;5011138;28;20514;-72
2022/06/22 04:11:04;;;;;;;10.80;7.82;;;;;;;;;;5010177;28;20037;-72
2022/06/22 04:13:39;;;;;;;12.43;7.90;;;;;;;;;;4989260;28;20057;-72
2022/06/22 04:16:10;;;;;;;8.50;7.60;;;;;;;;;;5008781;28;20033;-72
2022/06/22 04:18:47;;;;;;;9.65;7.18;;;;;;;;;;5007215;28;20026;-72
2022/06/22 04:21:16;;;;;;;11.77;8.00;;;;;;;;;;5008971;28;20021;-71
2022/06/22 04:23:42;;;;;;;12.02;8.02;;;;;;;;;;5005646;28;20026;-73
2022/06/22 04:26:12;;;;;;;11.13;7.63;;;;;;;;;;4990397;28;20034;-73
2022/06/22 04:28:41;;;;;;;11.15;7.85;;;;;;;;;;5010966;28;20378;-73
2022/06/22 04:31:08;;;;;;;10.63;8.38;;;;;;;;;;4994003;28;20037;-73
2022/06/22 04:33:53;;;;;;;10.82;9.10;;;;;;;;;;4993453;28;20033;-72
2022/06/22 04:36:23;;;;;;;11.82;8.38;;;;;;;;;;5002982;28;20367;-72
2022/06/22 04:38:55;;;;;;;27.27;17.30;;;;;;;;;;5009357;28;20658;-72
2022/06/22 04:41:24;;;;;;;19.95;15.45;;;;;;;;;;5010429;28;20034;-73
2022/06/22 04:43:51;;;;;;;20.80;12.55;;;;;;;;;;5010190;28;20109;-73
2022/06/22 04:46:21;;;;;;;12.38;9.13;;;;;;;;;;5010178;28;20033;-73
2022/06/22 04:48:48;;;;;;;13.88;10.27;;;;;;;;;;5008373;28;20169;-72
2022/06/22 04:51:17;;;;;;;13.20;10.45;;;;;;;;;;5011107;28;20385;-73
2022/06/22 04:53:45;;;;;;;14.23;10.63;;;;;;;;;;5009602;28;20048;-73
2022/06/22 04:56:13;;;;;;;12.35;9.55;;;;;;;;;;5011460;28;20022;-73
2022/06/22 04:58:44;;;;;;;15.40;9.63;;;;;;;;;;5008138;28;20038;-73
2022/06/22 05:01:14;;;;;;;13.15;10.07;;;;;;;;;;5010301;28;20022;-73
2022/06/22 05:03:40;;;;;;;16.20;10.35;;;;;;;;;;5013691;28;20022;-74
2022/06/22 05:06:08;;;;;;;11.98;10.20;;;;;;;;;;4992265;28;20033;-73
2022/06/22 05:08:37;;;;;;;13.57;10.18;;;;;;;;;;5010967;28;20438;-73
2022/06/22 05:11:06;;;;;;;14.95;10.43;;;;;;;;;;5005322;28;20034;-72
2022/06/22 05:13:34;;;;;;;31.05;20.98;;;;;;;;;;5004812;28;20034;-73
2022/06/22 05:16:01;;;;;;;44.70;28.65;;;;;;;;;;5007224;28;20154;-73
2022/06/22 05:18:30;;;;;;;24.73;16.55;;;;;;;;;;4991634;28;20033;-73
2022/06/22 05:21:02;;;;;;;16.73;12.02;;;;;;;;;;5005880;28;20058;-73
2022/06/22 05:23:30;;;;;;;14.93;11.75;;;;;;;;;;5007111;28;20049;-72
2022/06/22 05:25:58;;;;;;;20.48;12.85;;;;;;;;;;5009100;28;20025;-73
2022/06/22 05:28:44;;;;;;;16.67;11.13;;;;;;;;;;5010769;28;20050;-73
2022/06/22 05:31:15;;;;;;;14.15;10.85;;;;;;;;;;5007621;28;20057;-73
2022/06/22 05:33:46;;;;;;;18.30;11.27;;;;;;;;;;5008022;28;20034;-73
2022/06/22 05:36:13;;;;;;;19.13;11.27;;;;;;;;;;5007945;28;20034;-73
2022/06/22 05:38:41;;;;;;;16.33;11.05;;;;;;;;;;5009651;28;21862;-73
2022/06/22 05:41:08;;;;;;;16.48;11.00;;;;;;;;;;4991130;28;20022;-73
2022/06/22 05:43:36;;;;;;;18.55;11.27;;;;;;;;;;4994629;28;20037;-73
2022/06/22 05:46:06;;;;;;;15.60;9.90;;;;;;;;;;5011191;28;20026;-73
2022/06/22 05:48:34;;;;;;;18.10;9.77;;;;;;;;;;4990981;28;20104;-73
2022/06/22 05:51:02;;;;;;;18.77;10.15;;;;;;;;;;5008059;28;20401;-73
2022/06/22 05:53:32;;;;;;;15.98;9.38;;;;;;;;;;5012330;28;20048;-73
2022/06/22 05:56:03;;;;;;;15.32;9.38;;;;;;;;;;5004916;28;20358;-72
2022/06/22 05:58:41;;;;;;;19.05;11.00;;;;;;;;;;5009417;28;20037;-71
2022/06/22 06:01:14;;;;;;;17.65;10.32;;;;;;;;;;5008114;28;20026;-71
2022/06/22 06:03:43;;;;;;;16.35;9.85;;;;;;;;;;5005779;28;20030;-71
2022/06/22 06:06:15;;;;;;;30.55;18.80;;;;;;;;;;5006066;28;20022;-72
2022/06/22 06:08:45;;;;;;;22.42;13.48;;;;;;;;;;5011833;28;20358;-72
2022/06/22 06:11:21;;;;;;;15.63;10.65;;;;;;;;;;5007904;28;20504;-72
2022/06/22 06:13:49;;;;;;;11.70;8.55;;;;;;;;;;5012295;28;20034;-71
2022/06/22 06:16:25;;;;;;;13.88;8.90;;;;;;;;;;4994551;28;20024;-71
2022/06/22 06:18:52;;;;;;;11.88;8.85;;;;;;;;;;5012175;28;20038;-72
2022/06/22 06:21:22;;;;;;;13.88;9.57;;;;;;;;;;5012602;28;20126;-72
2022/06/22 06:23:55;;;;;;;12.82;8.68;;;;;;;;;;5013944;28;20034;-72
2022/06/22 06:29:12;;;;;;;17.88;9.30;;;;;;;;;;5008272;28;20044;-72
2022/06/22 06:31:56;;;;;;;11.30;9.00;;;;;;;;;;5011505;28;20030;-71
2022/06/22 06:34:24;;;;;;;10.40;7.22;;;;;;;;;;5013639;28;20033;-71
2022/06/22 06:36:57;;;;;;;10.70;6.97;;;;;;;;;;5010430;28;20037;-71
2022/06/22 06:39:29;;;;;;;11.18;6.20;;;;;;;;;;4996209;28;20417;-71
2022/06/22 06:42:06;;;;;;;13.15;6.75;;;;;;;;;;5010136;28;20033;-72
2022/06/22 06:44:37;;;;;;;9.43;6.13;;;;;;;;;;4994816;28;20033;-72
2022/06/22 06:47:06;;;;;;;14.38;6.45;;;;;;;;;;5007929;28;20046;-72
2022/06/22 06:49:33;;;;;;;10.60;4.63;;;;;;;;;;5009871;28;20493;-72
2022/06/22 06:52:02;;;;;;;10.82;5.25;;;;;;;;;;5009758;28;20033;-73
2022/06/22 06:54:33;;;;;;;7.88;4.25;;;;;;;;;;5013847;28;20026;-73
2022/06/22 06:56:59;;;;;;;8.95;4.25;;;;;;;;;;5008600;28;20155;-72
2022/06/22 06:59:28;;;;;;;9.07;4.68;;;;;;;;;;5012643;28;22084;-72
2022/06/22 07:01:54;;;;;;;5.95;3.78;;;;;;;;;;4998652;28;20021;-73
2022/06/22 07:04:24;;;;;;;9.00;3.85;;;;;;;;;;5019382;28;20058;-73
2022/06/22 07:06:52;;;;;;;8.68;3.78;;;;;;;;;;5003272;28;20042;-72
2022/06/22 07:09:24;;;;;;;9.82;4.43;;;;;;;;;;5007042;28;20470;-73
2022/06/22 07:11:52;;;;;;;10.43;4.80;;;;;;;;;;5010347;28;20027;-72
2022/06/22 07:14:39;;;;;;;8.52;3.33;;;;;;;;;;5012451;28;20553;-72
2022/06/22 07:17:09;;;;;;;11.60;3.35;;;;;;;;;;5009910;28;20106;-73
2022/06/22 07:19:41;;;;;;;7.45;3.83;;;;;;;;;;5002793;28;20022;-73
2022/06/22 07:22:13;;;;;;;9.95;4.15;;;;;;;;;;5006617;28;20056;-73
2022/06/22 07:24:44;;;;;;;7.32;3.63;;;;;;;;;;5006827;28;20488;-73
2022/06/22 07:27:22;;;;;;;6.80;3.42;;;;;;;;;;5011588;28;20080;-72
2022/06/22 07:30:08;;;;;;;7.25;2.90;;;;;;;;;;5011619;28;20370;-73
2022/06/22 07:32:41;;;;;;;6.22;2.97;;;;;;;;;;4994110;28;20128;-72
2022/06/22 07:35:10;;;;;;;8.63;3.28;;;;;;;;;;5004528;28;20903;-73
2022/06/22 07:37:40;;;;;;;8.73;3.72;;;;;;;;;;5001754;28;20070;-73
2022/06/22 07:40:14;;;;;;;6.80;2.83;;;;;;;;;;4997911;28;20044;-71
2022/06/22 07:42:40;;;;;;;5.90;2.30;;;;;;;;;;4996834;28;20428;-71
2022/06/22 07:45:06;;;;;;;6.78;2.75;;;;;;;;;;4973338;28;21826;-71
2022/06/22 07:47:37;;;;;;;7.75;3.08;;;;;;;;;;4989147;28;20116;-71
2022/06/22 07:50:23;;;;;;;7.10;2.80;;;;;;;;;;4987688;28;20033;-72
2022/06/22 07:53:10;;;;;;;25.77;15.35;;;;;;;;;;5007675;28;20022;-73
2022/06/22 07:55:36;;;;;;;10.55;7.30;;;;;;;;;;4993122;28;20038;-73
2022/06/22 07:58:17;;;;;;;9.23;3.25;;;;;;;;;;5008827;28;20089;-72
2022/06/22 08:00:44;;;;;;;9.57;3.05;;;;;;;;;;5011050;28;20030;-72
2022/06/22 08:03:14;;;;;;;6.00;2.88;;;;;;;;;;5009302;28;20026;-72
2022/06/22 08:05:43;;;;;;;7.95;3.28;;;;;;;;;;5010448;28;20065;-72
2022/06/22 08:08:30;;;;;;;6.95;3.13;;;;;;;;;;5010545;28;20113;-71
2022/06/22 08:11:00;;;;;;;7.28;3.00;;;;;;;;;;4995130;28;20363;-71
2022/06/22 08:13:32;;;;;;;6.57;2.83;;;;;;;;;;5004898;28;20368;-72
2022/06/22 08:16:07;;;;;;;7.78;3.17;;;;;;;;;;5012017;28;20034;-72
2022/06/22 08:18:33;;;;;;;8.05;3.22;;;;;;;;;;5006002;28;20101;-72
2022/06/22 08:20:59;;;;;;;5.75;2.67;;;;;;;;;;4973435;28;20133;-72
2022/06/22 08:23:31;;;;;;;5.78;1.98;;;;;;;;;;5005045;28;20044;-71
2022/06/22 08:25:58;;;;;;;7.03;2.60;;;;;;;;;;5012563;28;20026;-71
2022/06/22 08:28:25;;;;;;;4.80;2.22;;;;;;;;;;4981159;28;20092;-71
2022/06/22 08:30:53;;;;;;;5.70;2.28;;;;;;;;;;4993879;28;20539;-71
2022/06/22 08:33:28;;;;;;;5.72;2.40;;;;;;;;;;5006138;28;20033;-73
2022/06/22 08:36:00;;;;;;;5.38;2.33;;;;;;;;;;4998593;28;20034;-73
2022/06/22 08:38:29;;;;;;;5.65;2.05;;;;;;;;;;4992460;28;20064;-73
2022/06/22 08:40:55;;;;;;;6.05;2.35;;;;;;;;;;4970751;28;20025;-73
2022/06/22 08:43:32;;;;;;;8.82;2.13;;;;;;;;;;4973641;28;20113;-73
2022/06/22 08:46:04;;;;;;;5.93;2.28;;;;;;;;;;4999228;28;20064;-73
2022/06/22 08:48:39;;;;;;;6.13;2.28;;;;;;;;;;4995386;28;20063;-73
2022/06/22 08:51:11;;;;;;;4.40;1.75;;;;;;;;;;4998896;28;20038;-73
2022/06/22 08:53:56;;;;;;;7.82;2.38;;;;;;;;;;5003230;28;20026;-72
2022/06/22 08:56:38;;;;;;;5.47;2.00;;;;;;;;;;5001096;28;20046;-73
2022/06/22 08:59:33;;;;;;;4.97;1.50;;;;;;;;;;5005263;28;20038;-74
2022/06/22 09:02:05;;;;;;;3.13;2.00;;;;;;;;;;4987913;28;20041;-81
2022/06/22 09:04:38;;;;;;;13.27;8.75;;;;;;;;;;5007310;28;20050;-81
2022/06/22 09:07:07;;;;;;;6.85;1.75;;;;;;;;;;5005320;28;20531;-75
2022/06/22 09:09:40;;;;;;;4.70;2.20;;;;;;;;;;4998424;28;20044;-73
2022/06/22 09:12:16;;;;;;;4.47;1.83;;;;;;;;;;5002610;28;20037;-74
2022/06/22 09:14:49;;;;;;;7.68;1.98;;;;;;;;;;4982440;28;20126;-72
2022/06/22 09:17:18;;;;;;;4.78;1.42;;;;;;;;;;5004139;28;20076;-72
2022/06/22 09:20:00;;;;;;;4.63;1.90;;;;;;;;;;5000497;28;20575;-72
2022/06/22 09:22:35;;;;;;;6.40;2.28;;;;;;;;;;5005005;28;20064;-72
2022/06/22 09:25:05;;;;;;;4.40;1.90;;;;;;;;;;5000379;28;20092;-72
2022/06/22 09:27:34;;;;;;;6.88;2.25;;;;;;;;;;5005195;28;20048;-72
2022/06/22 09:30:20;;;;;;;4.72;1.67;;;;;;;;;;5003406;28;20091;-72
2022/06/22 09:32:46;;;;;;;8.07;3.13;;;;;;;;;;4993318;28;20193;-72
2022/06/22 09:35:26;;;;;;;4.10;2.20;;;;;;;;;;5005324;28;20030;-72
2022/06/22 09:38:04;;;;;;;5.28;2.28;;;;;;;;;;4991547;28;20041;-73
2022/06/22 09:40:30;;;;;;;5.35;2.08;;;;;;;;;;5000085;28;20030;-72
2022/06/22 09:43:12;;;;;;;6.43;1.75;;;;;;;;;;4975073;28;20037;-73
2022/06/22 09:45:39;;;;;;;3.60;1.70;;;;;;;;;;4986120;28;20042;-72
2022/06/22 09:48:09;;;;;;;8.57;5.00;;;;;;;;;;4999700;28;20038;-77
2022/06/22 09:50:53;;;;;;;4.80;2.38;;;;;;;;;;5007419;28;20037;-76
2022/06/22 09:53:27;;;;;;;4.10;1.90;;;;;;;;;;5010677;28;20705;-81
2022/06/22 09:56:20;;;;;;;8.65;1.90;;;;;;;;;;5004854;28;20706;-71
2022/06/22 09:58:52;;;;;;;7.72;2.33;;;;;;;;;;4977543;28;20325;-71
2022/06/22 10:01:27;;;;;;;4.57;1.60;;;;;;;;;;4971507;28;20072;-71
2022/06/22 10:04:05;;;;;;;7.45;1.80;;;;;;;;;;4988507;28;20022;-72
2022/06/22 10:06:34;;;;;;;5.40;1.95;;;;;;;;;;5003873;28;20109;-73
2022/06/22 10:09:18;;;;;;;7.50;1.85;;;;;;;;;;5008102;28;20084;-72
2022/06/22 10:11:49;;;;;;;4.65;1.65;;;;;;;;;;4992884;28;20030;-72
2022/06/22 10:14:38;;;;;;;7.28;2.78;;;;;;;;;;4992220;28;20037;-72
2022/06/22 10:17:16;;;;;;;6.93;2.35;;;;;;;;;;5008878;28;20026;-72
2022/06/22 10:20:01;;;;;;;4.13;1.85;;;;;;;;;;4986580;28;20030;-72
2022/06/22 10:22:28;;;;;;;6.72;2.38;;;;;;;;;;5005394;28;20050;-72
2022/06/22 10:24:57;;;;;;;6.68;2.42;;;;;;;;;;4998411;28;20428;-72
2022/06/22 10:27:35;;;;;;;8.13;5.90;;;;;;;;;;5003016;28;20160;-72
2022/06/22 10:30:10;;;;;;;16.40;10.27;;;;;;;;;;4990173;28;20053;-72
2022/06/22 10:32:36;;;;;;;6.35;2.88;;;;;;;;;;5005351;28;20025;-73
2022/06/22 10:35:05;;;;;;;5.38;2.53;;;;;;;;;;4989789;28;20045;-73
2022/06/22 10:37:35;;;;;;;4.70;2.20;;;;;;;;;;4989723;28;20038;-73
2022/06/22 10:45:51;;;;;;;5.03;2.13;;;;;;;;;;5007095;28;20037;-74
2022/06/22 10:48:35;;;;;;;4.60;1.77;;;;;;;;;;5009409;28;20041;-74
2022/06/22 10:51:04;;;;;;;5.28;2.53;;;;;;;;;;5008806;28;20053;-74
2022/06/22 10:53:36;;;;;;;7.68;2.50;;;;;;;;;;4990729;28;20104;-74
2022/06/22 10:56:18;;;;;;;9.80;2.55;;;;;;;;;;5013460;28;20393;-74
2022/06/22 10:58:44;;;;;;;;;;;;;;;;;;5007900;28;20022;-73
2022/06/22 11:01:19;;;;;;;7.20;2.45;;;;;;;;;;5002348;28;19945;-73
2022/06/22 11:03:48;;;;;;;2.83;1.83;;;;;;;;;;5012498;28;20026;-73
2022/06/22 11:06:33;;;;;;;5.50;2.22;;;;;;;;;;5012934;28;20026;-73
2022/06/22 11:09:02;;;;;;;2.40;1.70;;;;;;;;;;5008333;28;20034;-73
2022/06/22 11:11:47;;;;;;;7.38;2.35;;;;;;;;;;4993409;28;20434;-73
2022/06/22 11:14:39;;;;;;;4.97;1.83;;;;;;;;;;4991785;28;20034;-73
2022/06/22 11:17:05;;;;;;;;;;;;;;;;;;4980169;28;20117;-73
2022/06/22 11:19:33;;;;;;;8.18;2.05;;;;;;;;;;5011664;28;19993;-73
2022/06/22 11:22:29;;;;;;;2.75;1.38;;;;;;;;;;5012665;28;20259;-73
2022/06/22 11:25:13;;;;;;;5.03;1.58;;;;;;;;;;4997090;28;20077;-73
2022/06/22 11:31:00;;;;;;;4.45;1.42;;;;;;;;;;5012959;28;20506;-73
2022/06/22 11:33:30;;;;;;;4.50;1.60;;;;;;;;;;4995666;28;20122;-73
2022/06/22 11:36:08;;;;;;;5.93;2.10;;;;;;;;;;5003956;28;20057;-73
2022/06/22 11:38:55;;;;;;;3.67;1.98;;;;;;;;;;5011775;28;20053;-73
2022/06/22 11:41:40;;;;;;;3.22;1.58;;;;;;;;;;5011264;28;20040;-73
2022/06/22 11:44:16;;;;;;;10.50;2.05;;;;;;;;;;5013104;28;20099;-73
2022/06/22 11:46:47;;;;;;;5.32;2.25;;;;;;;;;;5011909;28;20026;-73
2022/06/22 11:49:25;;;;;;;3.97;1.70;;;;;;;;;;5012842;28;20025;-73
2022/06/22 11:52:19;;;;;;;4.50;1.75;;;;;;;;;;5003645;28;20037;-72
2022/06/22 11:55:11;;;;;;;5.63;2.03;;;;;;;;;;4957465;28;20034;-73
2022/06/22 11:58:16;;;;;;;6.22;1.80;;;;;;;;;;5007282;28;20501;-72
2022/06/22 12:00:42;;;;;;;4.00;1.75;;;;;;;;;;4946204;28;20123;-72
2022/06/22 12:03:18;;;;;;;5.90;1.85;;;;;;;;;;4949625;28;20039;-72
2022/06/22 12:05:56;;;;;;;5.30;1.65;;;;;;;;;;4976822;28;20429;-73
2022/06/22 12:08:38;;;;;;;7.10;2.38;;;;;;;;;;5006089;28;20117;-72
2022/06/22 12:11:10;;;;;;;3.28;1.85;;;;;;;;;;5011885;28;20448;-72
2022/06/22 12:16:52;;;;;;;6.30;1.90;;;;;;;;;;5006500;28;20161;-73
2022/06/22 12:19:28;;;;;;;5.05;1.92;;;;;;;;;;4987866;28;20041;-72
2022/06/22 12:21:57;;;;;;;8.82;4.82;;;;;;;;;;5010467;28;20101;-71
2022/06/22 12:24:42;;;;;;;6.28;2.40;;;;;;;;;;5008269;28;20084;-71
2022/06/22 12:27:08;;;;;;;6.07;2.45;;;;;;;;;;5008575;28;20037;-72
2022/06/22 12:29:48;;;;;;;6.57;1.98;;;;;;;;;;5010807;28;20057;-72
2022/06/22 12:32:18;;;;;;;5.97;2.00;;;;;;;;;;4992370;28;20064;-71
2022/06/22 12:35:00;;;;;;;6.20;1.80;;;;;;;;;;5004515;28;20034;-71
2022/06/22 12:37:31;;;;;;;6.57;2.65;;;;;;;;;;5008658;28;20088;-72
2022/06/22 12:40:02;;;;;;;6.00;2.13;;;;;;;;;;5012269;28;20049;-71
2022/06/22 12:42:38;;;;;;;4.78;2.15;;;;;;;;;;5011371;28;20026;-72
2022/06/22 12:45:14;;;;;;;7.13;2.42;;;;;;;;;;5000526;28;20038;-71
2022/06/22 12:47:43;;;;;;;5.53;2.25;;;;;;;;;;5006332;28;20037;-72
2022/06/22 12:50:21;;;;;;;6.93;2.30;;;;;;;;;;5009359;28;20033;-71
2022/06/22 12:52:50;;;;;;;9.30;2.42;;;;;;;;;;4989310;28;20068;-71
2022/06/22 12:55:21;;;;;;;4.97;1.88;;;;;;;;;;5003322;28;20030;-71
2022/06/22 12:57:55;;;;;;;6.70;2.13;;;;;;;;;;5011631;28;20386;-71
2022/06/22 13:00:22;;;;;;;6.25;2.33;;;;;;;;;;5011228;28;20080;-71
2022/06/22 13:02:49;;;;;;;5.95;2.47;;;;;;;;;;5006356;28;20485;-71
2022/06/22 13:05:17;;;;;;;4.03;1.85;;;;;;;;;;4992949;28;20100;-71
2022/06/22 13:08:04;;;;;;;6.53;2.85;;;;;;;;;;5009175;28;20034;-71
2022/06/22 13:10:33;;;;;;;8.32;2.85;;;;;;;;;;5010429;28;20029;-71
2022/06/22 13:13:07;;;;;;;8.20;2.53;;;;;;;;;;5011139;28;20022;-71
2022/06/22 13:15:38;;;;;;;6.18;2.50;;;;;;;;;;5007650;28;20081;-72
2022/06/22 13:18:13;;;;;;;5.97;2.50;;;;;;;;;;5007020;28;20038;-71
2022/06/22 13:20:47;;;;;;;7.60;2.47;;;;;;;;;;5010603;28;20034;-72
2022/06/22 13:23:28;;;;;;;4.30;2.20;;;;;;;;;;5010947;28;20054;-72
2022/06/22 13:26:04;;;;;;;8.32;3.15;;;;;;;;;;5010916;28;20018;-72
2022/06/22 13:28:49;;;;;;;9.50;2.63;;;;;;;;;;5011155;28;20048;-71
2022/06/22 13:31:21;;;;;;;7.25;2.30;;;;;;;;;;5013758;28;20037;-72
2022/06/22 13:33:50;;;;;;;6.00;2.42;;;;;;;;;;5011187;28;20034;-72
2022/06/22 13:36:35;;;;;;;8.80;3.03;;;;;;;;;;5009749;28;20381;-72
2022/06/22 13:39:01;;;;;;;6.15;3.28;;;;;;;;;;5010590;28;20026;-72
2022/06/22 13:41:28;;;;;;;5.93;2.38;;;;;;;;;;5007962;28;20030;-71
2022/06/22 13:43:57;;;;;;;8.23;3.10;;;;;;;;;;5008559;28;20121;-72
2022/06/22 13:46:24;;;;;;;6.28;2.78;;;;;;;;;;5005022;28;20362;-72
2022/06/22 13:49:03;;;;;;;6.72;3.22;;;;;;;;;;5009804;28;20049;-72
2022/06/22 13:51:32;;;;;;;7.38;2.88;;;;;;;;;;4993832;28;20050;-72
2022/06/22 13:54:10;;;;;;;5.50;2.90;;;;;;;;;;5011078;28;20059;-72
2022/06/22 13:56:47;;;;;;;8.57;3.20;;;;;;;;;;5005222;28;20025;-72
2022/06/22 13:59:21;;;;;;;8.25;3.38;;;;;;;;;;4983726;28;20030;-72
2022/06/22 14:01:51;;;;;;;7.80;2.40;;;;;;;;;;5009410;28;20052;-72
2022/06/22 14:04:23;;;;;;;5.15;2.70;;;;;;;;;;5012701;28;20054;-72
2022/06/22 14:06:55;;;;;;;5.50;2.65;;;;;;;;;;5014589;28;20022;-72
2022/06/22 14:09:30;;;;;;;4.97;2.10;;;;;;;;;;5013359;28;20152;-72
2022/06/22 14:11:59;;;;;;;3.90;2.50;;;;;;;;;;5014038;28;20034;-72
2022/06/22 14:14:36;;;;;;;7.15;2.75;;;;;;;;;;5006023;28;20109;-72
2022/06/22 14:17:08;;;;;;;5.95;2.75;;;;;;;;;;5011882;28;20069;-72
2022/06/22 14:19:41;;;;;;;9.98;2.97;;;;;;;;;;4997862;28;20053;-72
2022/06/22 14:22:19;;;;;;;10.98;2.83;;;;;;;;;;5014439;28;20040;-72
2022/06/22 14:24:46;;;;;;;9.75;3.10;;;;;;;;;;5013804;28;20469;-73
2022/06/22 14:27:30;;;;;;;9.93;2.90;;;;;;;;;;5013731;28;20113;-72
2022/06/22 14:30:12;;;;;;;11.02;3.80;;;;;;;;;;5008402;28;20048;-72
2022/06/22 14:32:57;;;;;;;9.55;3.50;;;;;;;;;;5014668;28;20026;-72
2022/06/22 14:35:30;;;;;;;9.60;2.90;;;;;;;;;;5014057;28;20069;-72
2022/06/22 14:37:59;;;;;;;8.43;3.00;;;;;;;;;;5014207;28;20038;-72
2022/06/22 14:40:29;;;;;;;5.53;2.95;;;;;;;;;;5014261;28;20025;-72
2022/06/22 14:42:58;;;;;;;8.95;2.72;;;;;;;;;;5012374;28;20492;-72
2022/06/22 14:45:24;;;;;;;7.35;2.88;;;;;;;;;;5012683;28;20036;-72
2022/06/22 14:47:54;;;;;;;7.55;2.90;;;;;;;;;;5013252;28;20044;-72
2022/06/22 14:50:39;;;;;;;9.23;2.80;;;;;;;;;;5013758;28;20041;-72
2022/06/22 14:53:05;;;;;;;9.50;2.97;;;;;;;;;;4994110;28;20100;-72
2022/06/22 14:55:41;;;;;;;9.07;2.70;;;;;;;;;;5012514;28;20041;-72
2022/06/22 14:58:17;;;;;;;10.98;3.20;;;;;;;;;;5011556;28;20034;-72
2022/06/22 15:00:52;;;;;;;11.07;3.85;;;;;;;;;;5012390;28;20120;-72
2022/06/22 15:03:20;;;;;;;9.82;3.60;;;;;;;;;;5025935;28;20057;-72
2022/06/22 15:06:04;;;;;;;10.32;3.17;;;26.70;90.60;;;;;;5011868;28;20568;-72
2022/06/22 15:08:52;;;;;;;9.10;3.08;;;26.80;91.10;;;;;;5012982;28;20116;-72
2022/06/22 15:14:07;;;;;;;9.23;2.83;;;;;;;;;;5018091;28;20042;-82
2022/06/22 15:16:36;;;;;;;7.85;3.50;;;;;;;;;;5018237;28;20053;-80
2022/06/22 15:19:17;;;;;;;5.72;2.88;;;;;;;;;;5020401;28;20033;-80
2022/06/22 15:21:47;;;;;;;9.00;3.30;;;;;;;;;;5015820;28;20176;-78
2022/06/22 15:24:41;;;;;;;8.95;2.83;;;26.50;88.50;;;;;;5011701;28;20041;-78
2022/06/22 15:27:24;;;;;;;8.57;2.80;;;26.60;91.40;;;;;;5012801;28;20041;-83
2022/06/22 15:29:55;;;;;;;10.02;3.58;;;;;;;;;;5019063;28;20037;-79
2022/06/22 15:32:27;;;;;;;9.07;2.95;;;;;;;;;;5017540;28;20057;-76
2022/06/22 15:34:57;;;;;;;6.90;2.90;;;;;;;;;;5019016;28;20022;-77